Airfield :
LOGIN :

Register | Disclaimer

   EN    FR    IT 

 










Legend :    VFR   Marginal VFR   IFR   Intensive IFR   Very Intensive IFR
Visi :
Ceiling :
>= 8 km
>= 3000ft
5 to 8 km
1000 to 3000 ft
1500m to 5 km
500 to 1000 ft
800 to 1500m
200 to 500 ft
< 800m
< 200 ft
Symbols :   Thunderstorms  Fog  Heavy snow  Heavy precipitations  Wind > 20 kt
SIGMETs :     Misc.  Thunderstorms  Icing  Turbulence  Mountain Waves  Volcanic Ashes






- Airport Elevation : 510 ft


LJCE - Cerklje

CURRENT METAR :
  • 142130Z AUTO 20004KT 9999 -RA NSC 17/16 Q1014 RERA

EXPIRED METARs :
  • 142100Z AUTO 00000KT 9999 RA NSC 17/16 Q1014
  • 142030Z AUTO 24003KT 9999 RA NSC 17/16 Q1014
  • 142000Z AUTO VRB03KT 9999 RA NSC 17/16 Q1014 RERA
  • 141930Z AUTO VRB02KT 9999 RA NSC 16/16 Q1015 RERA
  • 141900Z AUTO 22014KT 190V250 3700 +RA BKN014/// OVC029/// 16/15 Q1016

TAF TAF LJCE
Valid from the 14 at 21:00 until the 15 at 06:00 UTC


142000Z 1421/1506 VRB02KT 9999 FEW040
PROB40
TEMPO 1421/1503 5000 TSRA SCT050CB BKN055



MET'MAP, your aeronautical weather chart ! - Copyright ORBIFLY December 2007 - Disclaimer

ORBIFLY MET'MAP TEAM :

Programming & Development : Alexandra Zaïnal
Concept & original design : Baudouin d'Aumeries
Assistance for programming : Marc-Olivier Méhu
Technical & hardware support : Manuel Goepfert

Contact : metmap@orbifly.com




SOURCES & CREDITS :

   NOAA